Time;durP1;ratioP1;P1;durP2;ratioP2;P2;SDS_P1;SDS_P2;PMS_P1;PMS_P2;Temp;Humidity;BMP_temperature;BMP_pressure;BME280_temperature;BME280_humidity;BME280_pressure;Samples;Min_cycle;Max_cycle;Signal;HPM_P1;HPM_P2
2022/01/16 00:00:16;;;;;;;17.67;8.55;;;-0.10;99.90;;;;;;4972497;28;20113;-61
2022/01/16 00:05:20;;;;;;;162.57;54.72;;;-0.20;99.90;;;;;;4970834;28;20525;-62
2022/01/16 00:07:47;;;;;;;25.50;8.45;;;-0.10;99.90;;;;;;4970974;28;20136;-62
2022/01/16 00:10:13;;;;;;;30.58;10.70;;;-0.10;99.90;;;;;;4965914;28;20062;-62
2022/01/16 00:12:38;;;;;;;34.25;11.68;;;-0.20;99.90;;;;;;4962999;28;20065;-62
2022/01/16 00:15:05;;;;;;;38.33;13.27;;;-0.10;99.90;;;;;;4973081;28;20038;-62
2022/01/16 00:17:35;;;;;;;22.80;10.20;;;-0.10;99.90;;;;;;4971500;28;20392;-61
2022/01/16 00:20:02;;;;;;;24.88;8.68;;;-0.10;99.90;;;;;;4970694;28;20774;-61
2022/01/16 00:22:32;;;;;;;17.25;8.20;;;-0.20;99.90;;;;;;4964362;28;20175;-61
2022/01/16 00:25:02;;;;;;;19.95;7.97;;;-0.20;99.90;;;;;;4968432;28;20077;-61
2022/01/16 00:27:27;;;;;;;18.65;7.85;;;-0.20;99.90;;;;;;4969933;28;20418;-61
2022/01/16 00:29:53;;;;;;;18.75;7.32;;;-0.20;99.90;;;;;;4970462;28;20022;-61
2022/01/16 00:32:19;;;;;;;25.40;11.10;;;-0.20;99.90;;;;;;4969316;28;20161;-62
2022/01/16 00:34:44;;;;;;;20.42;9.38;;;-0.10;99.90;;;;;;4968846;28;20101;-62
2022/01/16 00:37:10;;;;;;;18.75;8.68;;;-0.10;99.90;;;;;;4968604;28;20042;-62
2022/01/16 00:39:35;;;;;;;24.50;9.60;;;-0.10;99.90;;;;;;4969328;28;21746;-62
2022/01/16 00:42:01;;;;;;;15.18;7.32;;;-0.10;99.90;;;;;;4969453;28;20480;-62
2022/01/16 00:44:27;;;;;;;22.42;8.73;;;-0.10;99.90;;;;;;4972924;28;20026;-62
2022/01/16 00:46:52;;;;;;;24.85;11.20;;;-0.20;99.90;;;;;;4966988;28;20034;-62
2022/01/16 00:49:18;;;;;;;24.02;10.20;;;-0.10;99.90;;;;;;4973046;28;20050;-62
2022/01/16 00:51:43;;;;;;;37.92;14.07;;;-0.10;99.90;;;;;;4974647;28;20030;-62
2022/01/16 00:54:10;;;;;;;31.63;11.15;;;-0.10;99.90;;;;;;4972749;28;20136;-62
2022/01/16 00:56:35;;;;;;;25.23;9.77;;;-0.10;99.90;;;;;;4973771;28;20921;-62
2022/01/16 00:59:01;;;;;;;25.88;9.82;;;-0.10;99.90;;;;;;4969944;28;20027;-62
2022/01/16 01:01:27;;;;;;;31.00;10.63;;;-0.10;99.90;;;;;;4970196;28;20128;-62
2022/01/16 01:03:53;;;;;;;58.10;17.67;;;-0.10;99.90;;;;;;4963078;28;20494;-62
2022/01/16 01:06:18;;;;;;;30.33;10.98;;;-0.10;99.90;;;;;;4968042;28;20034;-62
2022/01/16 01:08:44;;;;;;;34.45;12.13;;;-0.10;99.90;;;;;;4973673;28;20585;-62
2022/01/16 01:11:14;;;;;;;16.77;8.05;;;-0.10;99.90;;;;;;4974801;28;20030;-61
2022/01/16 01:16:27;;;;;;;20.48;7.78;;;-0.10;99.90;;;;;;4976706;28;20049;-61
2022/01/16 01:18:53;;;;;;;25.35;9.68;;;-0.10;99.90;;;;;;4976688;28;20117;-61
2022/01/16 01:21:28;;;;;;;19.88;7.53;;;-0.10;99.90;;;;;;4973700;28;20064;-61
2022/01/16 01:23:57;;;;;;;27.67;9.10;;;-0.10;99.90;;;;;;4973027;28;20529;-61
2022/01/16 01:26:27;;;;;;;25.27;9.32;;;-0.10;99.90;;;;;;4975049;28;20042;-61
2022/01/16 01:28:53;;;;;;;23.25;7.55;;;-0.10;99.90;;;;;;4972574;28;20030;-61
2022/01/16 01:31:19;;;;;;;20.23;7.95;;;-0.10;99.90;;;;;;4970830;28;20041;-61
2022/01/16 01:33:44;;;;;;;18.60;8.13;;;-0.10;99.90;;;;;;4971484;28;20380;-61
2022/01/16 01:36:10;;;;;;;16.02;7.35;;;-0.10;99.90;;;;;;4974318;28;20599;-61
2022/01/16 01:38:35;;;;;;;15.93;6.68;;;-0.10;99.90;;;;;;4977196;28;20117;-61
2022/01/16 01:41:01;;;;;;;23.85;10.20;;;-0.10;99.90;;;;;;4974184;28;20675;-61
2022/01/16 01:51:27;;;;;;;18.33;8.57;;;-0.10;99.90;;;;;;4978153;28;20080;-61
2022/01/16 01:53:56;;;;;;;19.65;9.32;;;-0.20;99.90;;;;;;4974457;28;20125;-61
2022/01/16 01:56:23;;;;;;;17.70;7.90;;;-0.20;99.90;;;;;;4977878;28;20042;-61
2022/01/16 01:58:54;;;;;;;24.23;7.90;;;-0.20;99.90;;;;;;4976247;28;20069;-61
2022/01/16 02:01:21;;;;;;;25.42;9.57;;;-0.10;99.90;;;;;;4973724;28;20066;-62
2022/01/16 02:03:48;;;;;;;24.20;8.32;;;-0.10;99.90;;;;;;4974831;28;20038;-61
2022/01/16 02:06:20;;;;;;;31.77;10.27;;;-0.10;99.90;;;;;;4975351;28;20487;-61
2022/01/16 02:08:52;;;;;;;22.30;9.02;;;-0.10;99.90;;;;;;4978439;28;20037;-61
2022/01/16 02:11:22;;;;;;;20.48;8.88;;;-0.10;99.90;;;;;;4971536;28;20044;-62
2022/01/16 02:14:14;;;;;;;23.08;9.70;;;-0.20;99.90;;;;;;4975683;28;20034;-61
2022/01/16 02:35:43;;;;;;;17.98;7.95;;;-0.10;99.90;;;;;;4978642;28;20160;-61
2022/01/16 02:38:09;;;;;;;23.63;9.60;;;-0.20;99.90;;;;;;4980213;28;20106;-61
2022/01/16 02:40:37;;;;;;;29.73;10.52;;;-0.20;99.90;;;;;;4982935;28;20125;-62
2022/01/16 02:43:04;;;;;;;26.17;10.10;;;-0.20;99.90;;;;;;4978033;28;20116;-62
2022/01/16 02:45:32;;;;;;;19.08;7.85;;;-0.20;99.90;;;;;;4981598;28;20022;-62
2022/01/16 02:48:01;;;;;;;25.20;10.05;;;-0.20;99.90;;;;;;4980614;28;20553;-61
2022/01/16 02:50:28;;;;;;;28.25;9.98;;;-0.20;99.90;;;;;;4979570;28;20120;-61
2022/01/16 02:52:54;;;;;;;23.15;10.63;;;-0.20;99.90;;;;;;4983063;28;20471;-62
2022/01/16 02:55:21;;;;;;;20.85;8.88;;;-0.10;99.90;;;;;;4976868;28;20042;-62
2022/01/16 02:57:49;;;;;;;28.67;10.95;;;-0.10;99.90;;;;;;4979799;28;20040;-62
2022/01/16 03:00:16;;;;;;;29.67;11.35;;;-0.10;99.90;;;;;;4982879;28;20034;-61
2022/01/16 03:02:42;;;;;;;21.33;11.13;;;-0.10;99.90;;;;;;4978818;28;20054;-61
2022/01/16 03:05:08;;;;;;;20.30;9.20;;;-0.10;99.90;;;;;;4975955;28;20042;-62
2022/01/16 03:07:33;;;;;;;24.10;10.00;;;-0.20;99.90;;;;;;4980287;28;20034;-62
2022/01/16 03:10:46;;;;;;;23.88;10.38;;;-0.10;99.90;;;;;;4977177;28;20030;-61
2022/01/16 03:13:11;;;;;;;25.67;9.45;;;-0.20;99.90;;;;;;4975854;28;20069;-61
2022/01/16 03:15:38;;;;;;;22.45;11.90;;;-0.10;99.90;;;;;;4979809;28;20377;-61
2022/01/16 03:23:18;;;;;;;25.45;10.77;;;-0.10;99.90;;;;;;4978535;28;20097;-62
2022/01/16 03:25:45;;;;;;;27.08;9.85;;;-0.10;99.90;;;;;;4976384;28;20042;-61
2022/01/16 03:28:11;;;;;;;24.92;11.45;;;-0.10;99.90;;;;;;4979178;28;20034;-62
2022/01/16 03:30:37;;;;;;;31.88;11.88;;;-0.10;99.90;;;;;;4978950;28;20386;-62
2022/01/16 03:33:02;;;;;;;25.25;11.98;;;-0.10;99.90;;;;;;4982124;28;20030;-62
2022/01/16 03:35:28;;;;;;;25.05;11.45;;;-0.10;99.90;;;;;;4977734;28;20030;-62
2022/01/16 03:37:54;;;;;;;20.58;11.05;;;-0.10;99.90;;;;;;4979532;28;20034;-62
2022/01/16 03:40:21;;;;;;;20.75;10.70;;;-0.10;99.90;;;;;;4980110;28;20455;-62
2022/01/16 03:42:48;;;;;;;16.88;9.85;;;-0.10;99.90;;;;;;4982014;28;20026;-62
2022/01/16 03:45:14;;;;;;;22.08;10.05;;;-0.10;99.90;;;;;;4975329;28;20023;-62
2022/01/16 03:47:39;;;;;;;20.10;10.95;;;-0.10;99.90;;;;;;4978372;28;20081;-62
2022/01/16 03:50:06;;;;;;;19.98;11.07;;;-0.10;99.90;;;;;;4979593;28;20444;-62
2022/01/16 03:52:31;;;;;;;23.50;11.63;;;-0.10;99.90;;;;;;4980343;28;20038;-62
2022/01/16 03:54:57;;;;;;;26.08;11.63;;;-0.10;99.90;;;;;;4975993;28;20042;-62
2022/01/16 03:57:23;;;;;;;30.20;13.18;;;-0.10;99.90;;;;;;4971382;28;20038;-62
2022/01/16 03:59:49;;;;;;;21.83;10.43;;;-0.10;99.90;;;;;;4976172;28;20037;-62
2022/01/16 04:02:14;;;;;;;21.83;10.50;;;-0.10;99.90;;;;;;4973044;28;20038;-62
2022/01/16 04:04:40;;;;;;;27.17;12.88;;;-0.10;99.90;;;;;;4972566;28;20137;-62
2022/01/16 04:07:08;;;;;;;29.15;13.68;;;-0.10;99.90;;;;;;4973834;28;20057;-62
2022/01/16 04:09:34;;;;;;;25.35;11.43;;;-0.10;99.90;;;;;;4976822;28;20390;-62
2022/01/16 04:12:00;;;;;;;25.20;11.88;;;-0.10;99.90;;;;;;4979555;28;20042;-62
2022/01/16 04:17:15;;;;;;;24.98;13.02;;;-0.10;99.90;;;;;;4955015;28;20053;-62
2022/01/16 04:19:41;;;;;;;28.88;11.93;;;-0.10;99.90;;;;;;4975224;28;20406;-62
2022/01/16 04:22:06;;;;;;;30.48;12.65;;;-0.10;99.90;;;;;;4977935;28;20089;-62
2022/01/16 04:24:36;;;;;;;23.45;11.75;;;-0.10;99.90;;;;;;4978568;28;20424;-62
2022/01/16 04:27:02;;;;;;;21.70;11.27;;;-0.10;99.90;;;;;;4974629;28;20050;-61
2022/01/16 04:29:28;;;;;;;32.20;15.07;;;-0.10;99.90;;;;;;4979633;28;20034;-61
2022/01/16 04:31:54;;;;;;;19.55;9.85;;;-0.10;99.90;;;;;;4978342;28;20095;-61
2022/01/16 04:34:19;;;;;;;24.25;12.32;;;-0.10;99.90;;;;;;4975630;28;20030;-62
2022/01/16 04:36:45;;;;;;;27.60;12.77;;;-0.10;99.90;;;;;;4979948;28;20023;-61
2022/01/16 04:39:17;;;;;;;23.35;11.25;;;-0.10;99.90;;;;;;4980776;28;20085;-62
2022/01/16 04:44:27;;;;;;;27.33;11.35;;;-0.10;99.90;;;;;;4977544;28;20073;-62
2022/01/16 04:46:53;;;;;;;30.23;12.85;;;-0.10;99.90;;;;;;4979084;28;20157;-61
2022/01/16 04:49:19;;;;;;;24.38;12.27;;;-0.10;99.90;;;;;;4977297;28;20093;-61
2022/01/16 04:51:45;;;;;;;22.10;12.07;;;-0.20;99.90;;;;;;4976102;28;20034;-61
2022/01/16 04:54:11;;;;;;;26.65;11.85;;;-0.10;99.90;;;;;;4977866;28;20639;-61
2022/01/16 04:56:36;;;;;;;26.90;13.32;;;-0.20;99.90;;;;;;4971553;28;20036;-61
2022/01/16 04:59:02;;;;;;;23.27;11.18;;;-0.10;99.90;;;;;;4975392;28;20144;-61
2022/01/16 05:01:28;;;;;;;22.42;13.02;;;-0.10;99.90;;;;;;4975929;28;20173;-61
2022/01/16 05:03:54;;;;;;;24.63;13.82;;;-0.10;99.90;;;;;;4976650;28;20038;-61
2022/01/16 05:06:20;;;;;;;21.30;11.50;;;-0.10;99.90;;;;;;4972711;28;20030;-62
2022/01/16 05:08:46;;;;;;;19.92;11.85;;;-0.10;99.90;;;;;;4976809;28;20058;-61
2022/01/16 05:11:13;;;;;;;27.02;12.13;;;-0.10;99.90;;;;;;4977690;28;20129;-61
2022/01/16 05:18:51;;;;;;;22.55;11.15;;;-0.10;99.90;;;;;;4977321;28;20041;-61
2022/01/16 05:21:17;;;;;;;22.95;12.32;;;-0.10;99.90;;;;;;4979343;28;20664;-61
2022/01/16 05:23:43;;;;;;;31.05;13.02;;;-0.10;99.90;;;;;;4976795;28;20327;-61
2022/01/16 05:26:13;;;;;;;22.10;13.05;;;-0.10;99.90;;;;;;4976240;28;20782;-61
2022/01/16 05:28:38;;;;;;;29.83;13.77;;;-0.10;99.90;;;;;;4973401;28;20034;-61
2022/01/16 05:31:05;;;;;;;29.95;14.02;;;-0.10;99.90;;;;;;4974323;28;21214;-61
2022/01/16 05:33:31;;;;;;;22.65;11.43;;;-0.10;99.90;;;;;;4980633;28;20072;-61
2022/01/16 05:35:57;;;;;;;25.95;11.45;;;-0.10;99.90;;;;;;4973332;28;20187;-61
2022/01/16 05:38:22;;;;;;;27.95;14.15;;;-0.10;99.90;;;;;;4975168;28;20034;-61
2022/01/16 05:40:48;;;;;;;25.15;11.93;;;-0.10;99.90;;;;;;4980171;28;20028;-61
2022/01/16 05:43:14;;;;;;;23.83;11.35;;;-0.10;99.90;;;;;;4978458;28;20081;-61
2022/01/16 05:45:40;;;;;;;28.63;14.68;;;-0.10;99.90;;;;;;4981230;28;20110;-61
2022/01/16 05:48:06;;;;;;;20.33;11.95;;;-0.10;99.90;;;;;;4975780;28;20057;-61
2022/01/16 05:50:32;;;;;;;20.65;11.48;;;-0.10;99.90;;;;;;4975551;28;20077;-61
2022/01/16 05:53:02;;;;;;;26.45;11.70;;;-0.10;99.90;;;;;;4973656;28;20031;-61
2022/01/16 05:55:35;;;;;;;21.38;11.57;;;-0.10;99.90;;;;;;4977242;28;21017;-61
2022/01/16 05:58:02;;;;;;;23.80;12.90;;;-0.10;99.90;;;;;;4978410;28;20054;-61
2022/01/16 06:00:28;;;;;;;25.35;13.68;;;-0.10;99.90;;;;;;4973730;28;20034;-61
2022/01/16 06:02:53;;;;;;;26.50;13.60;;;-0.10;99.90;;;;;;4974476;28;20034;-61
2022/01/16 06:05:19;;;;;;;30.88;15.15;;;-0.10;99.90;;;;;;4977566;28;20018;-60
2022/01/16 06:07:50;;;;;;;26.85;12.32;;;-0.10;99.90;;;;;;4973784;28;20027;-60
2022/01/16 06:10:16;;;;;;;27.75;13.25;;;-0.10;99.90;;;;;;4974554;28;20061;-60
2022/01/16 06:12:42;;;;;;;24.85;13.57;;;-0.10;99.90;;;;;;4976104;28;20026;-61
2022/01/16 06:15:07;;;;;;;30.20;15.02;;;-0.10;99.90;;;;;;4975250;28;20031;-61
2022/01/16 06:17:33;;;;;;;29.90;13.30;;;0.00;99.90;;;;;;4974961;28;20073;-61
2022/01/16 06:19:59;;;;;;;26.20;13.73;;;0.00;99.90;;;;;;4974314;28;20026;-61
2022/01/16 06:22:24;;;;;;;35.78;14.05;;;0.00;99.90;;;;;;4976686;28;20034;-61
2022/01/16 06:24:50;;;;;;;25.70;12.73;;;0.00;99.90;;;;;;4977988;28;20423;-61
2022/01/16 06:27:16;;;;;;;26.35;14.15;;;0.00;99.90;;;;;;4974587;28;20058;-61
2022/01/16 06:29:42;;;;;;;31.60;13.68;;;0.00;99.90;;;;;;4973364;28;20030;-61
2022/01/16 06:32:07;;;;;;;34.90;14.68;;;0.00;99.90;;;;;;4976097;28;20053;-61
2022/01/16 06:34:33;;;;;;;31.75;15.38;;;0.00;99.90;;;;;;4970113;28;20416;-61
2022/01/16 06:36:59;;;;;;;26.23;13.32;;;-0.10;99.90;;;;;;4975062;28;20483;-61
2022/01/16 06:39:24;;;;;;;31.02;15.20;;;-0.10;99.90;;;;;;4973850;28;20044;-61
2022/01/16 06:41:50;;;;;;;26.77;13.10;;;-0.10;99.90;;;;;;4974058;28;20026;-61
2022/01/16 06:44:16;;;;;;;24.73;12.35;;;-0.10;99.90;;;;;;4977338;28;20034;-61
2022/01/16 06:46:42;;;;;;;29.55;14.32;;;-0.10;99.90;;;;;;4974793;28;20039;-61
2022/01/16 06:49:10;;;;;;;24.65;12.52;;;-0.10;99.90;;;;;;4970900;28;20031;-60
2022/01/16 06:51:36;;;;;;;28.13;12.68;;;-0.10;99.90;;;;;;4974929;28;20447;-61
2022/01/16 06:54:03;;;;;;;27.95;13.07;;;-0.10;99.90;;;;;;4975753;28;20248;-61
2022/01/16 06:56:29;;;;;;;25.67;12.10;;;0.00;99.90;;;;;;4972348;28;20042;-61
2022/01/16 06:58:55;;;;;;;32.28;15.13;;;-0.10;99.90;;;;;;4974479;28;20033;-61
2022/01/16 07:01:21;;;;;;;28.55;14.05;;;-0.10;99.90;;;;;;4977328;28;20038;-61
2022/01/16 07:03:48;;;;;;;23.13;13.20;;;-0.10;99.90;;;;;;4975668;28;20093;-61
2022/01/16 07:06:14;;;;;;;31.17;14.68;;;-0.10;99.90;;;;;;4977825;28;20105;-61
2022/01/16 07:08:40;;;;;;;32.90;14.93;;;-0.10;99.90;;;;;;4979508;28;20525;-61
2022/01/16 07:11:06;;;;;;;25.83;11.75;;;0.00;99.90;;;;;;4980998;28;20530;-61
2022/01/16 07:13:32;;;;;;;26.85;14.55;;;0.00;99.90;;;;;;4981411;28;20495;-61
2022/01/16 07:15:57;;;;;;;32.30;13.52;;;0.00;99.90;;;;;;4979312;28;20352;-61
2022/01/16 07:18:24;;;;;;;27.05;12.63;;;0.00;99.90;;;;;;4980075;28;20117;-61
2022/01/16 07:20:49;;;;;;;32.67;15.38;;;0.00;99.90;;;;;;4978892;28;20430;-61
2022/01/16 07:23:16;;;;;;;28.27;12.60;;;0.00;99.90;;;;;;4981126;28;20064;-61
2022/01/16 07:25:43;;;;;;;24.98;12.80;;;0.00;99.90;;;;;;4982088;28;20027;-61
2022/01/16 07:28:09;;;;;;;32.53;14.88;;;0.00;99.90;;;;;;4977005;28;20049;-61
2022/01/16 07:30:38;;;;;;;26.60;15.13;;;0.00;99.90;;;;;;4977377;28;20330;-61
2022/01/16 07:33:05;;;;;;;38.00;14.27;;;0.00;99.90;;;;;;4979126;28;20034;-61
2022/01/16 07:35:32;;;;;;;28.30;14.30;;;0.00;99.90;;;;;;4977840;28;20039;-61
2022/01/16 07:37:58;;;;;;;34.30;15.93;;;0.10;99.90;;;;;;4974258;28;20061;-61
2022/01/16 07:40:24;;;;;;;34.58;15.25;;;0.10;99.90;;;;;;4977296;28;20403;-61
2022/01/16 07:42:51;;;;;;;38.58;16.88;;;0.10;99.90;;;;;;4980024;28;20422;-61
2022/01/16 07:45:16;;;;;;;34.55;15.63;;;0.10;99.90;;;;;;4978102;28;20130;-61
2022/01/16 07:47:42;;;;;;;31.00;15.48;;;0.10;99.90;;;;;;4977970;28;20779;-61
2022/01/16 07:50:09;;;;;;;31.25;14.77;;;0.10;99.90;;;;;;4977124;28;20422;-61
2022/01/16 07:52:34;;;;;;;29.30;14.68;;;0.10;99.90;;;;;;4980529;28;20044;-61
2022/01/16 07:55:00;;;;;;;37.35;17.35;;;0.10;99.90;;;;;;4980951;28;20558;-61
2022/01/16 07:57:26;;;;;;;31.98;15.52;;;0.10;99.90;;;;;;4978681;28;20053;-61
2022/01/16 07:59:52;;;;;;;34.03;16.17;;;0.20;99.90;;;;;;4975114;28;20545;-61
2022/01/16 08:02:18;;;;;;;34.10;15.55;;;0.20;99.90;;;;;;4974899;28;20117;-60
2022/01/16 08:04:44;;;;;;;31.13;15.43;;;0.20;99.90;;;;;;4976704;28;20058;-61
2022/01/16 08:07:10;;;;;;;36.10;15.60;;;0.20;99.90;;;;;;4977876;28;20558;-60
2022/01/16 08:09:40;;;;;;;31.13;16.92;;;0.20;99.90;;;;;;4979434;28;20022;-61
2022/01/16 08:12:07;;;;;;;33.25;16.08;;;0.20;99.90;;;;;;4981670;28;20037;-60
2022/01/16 08:14:33;;;;;;;37.22;14.93;;;0.20;99.90;;;;;;4978692;28;20137;-60
2022/01/16 08:17:00;;;;;;;32.67;15.10;;;0.20;99.90;;;;;;4979253;28;20035;-60
2022/01/16 08:19:27;;;;;;;34.85;15.43;;;0.20;99.90;;;;;;4980070;28;20093;-61
2022/01/16 08:21:53;;;;;;;26.83;14.05;;;0.10;99.90;;;;;;4973224;28;20237;-61
2022/01/16 08:24:18;;;;;;;42.53;17.08;;;0.10;99.90;;;;;;4981233;28;20129;-61
2022/01/16 08:26:44;;;;;;;32.70;15.45;;;0.10;99.90;;;;;;4972424;28;20046;-61
2022/01/16 08:29:10;;;;;;;31.83;14.95;;;0.10;99.90;;;;;;4976534;28;22722;-61
2022/01/16 08:31:36;;;;;;;34.22;14.90;;;0.20;99.90;;;;;;4978720;28;20046;-61
2022/01/16 08:34:02;;;;;;;36.60;16.23;;;0.20;99.90;;;;;;4973726;28;20038;-61
2022/01/16 08:36:27;;;;;;;33.72;13.88;;;0.20;99.90;;;;;;4971602;28;20035;-61
2022/01/16 08:38:56;;;;;;;37.53;14.57;;;0.20;99.90;;;;;;4977987;28;20081;-61
2022/01/16 08:41:22;;;;;;;31.00;14.98;;;0.20;99.90;;;;;;4980924;28;20045;-61
2022/01/16 08:43:48;;;;;;;38.80;17.48;;;0.20;99.90;;;;;;4976706;28;20064;-61
2022/01/16 08:46:14;;;;;;;33.85;14.40;;;0.20;99.90;;;;;;4980150;28;20089;-61
2022/01/16 08:48:40;;;;;;;37.60;15.95;;;0.20;99.90;;;;;;4981872;28;20383;-61
2022/01/16 08:51:06;;;;;;;37.92;16.77;;;0.20;99.90;;;;;;4977053;28;20034;-61
2022/01/16 08:53:33;;;;;;;37.90;18.00;;;0.30;99.90;;;;;;4976031;28;20042;-61
2022/01/16 08:55:59;;;;;;;32.53;16.10;;;0.30;99.90;;;;;;4982333;28;20026;-61
2022/01/16 08:58:26;;;;;;;38.08;16.42;;;0.20;99.90;;;;;;4979137;28;20034;-61
2022/01/16 09:00:52;;;;;;;34.78;16.67;;;0.30;99.90;;;;;;4976867;28;20035;-61
2022/01/16 09:03:22;;;;;;;31.88;13.88;;;0.30;99.90;;;;;;4982998;28;20037;-61
2022/01/16 09:05:49;;;;;;;28.70;13.30;;;0.30;99.90;;;;;;4976491;28;20038;-61
2022/01/16 09:08:16;;;;;;;32.92;14.50;;;0.30;99.90;;;;;;4977398;28;20037;-61
2022/01/16 09:10:41;;;;;;;40.45;15.88;;;0.30;99.90;;;;;;4977202;28;20030;-61
2022/01/16 09:13:15;;;;;;;32.50;15.23;;;0.30;99.90;;;;;;4975433;28;20458;-61
2022/01/16 09:15:42;;;;;;;45.50;16.17;;;0.40;99.90;;;;;;4978403;28;20506;-61
2022/01/16 09:18:08;;;;;;;34.55;18.27;;;0.40;99.90;;;;;;4980398;28;20699;-61
2022/01/16 09:20:33;;;;;;;40.90;15.55;;;0.40;99.90;;;;;;4977637;28;20132;-61
2022/01/16 09:23:01;;;;;;;31.13;15.38;;;0.40;99.90;;;;;;4977167;28;20022;-61
2022/01/16 09:25:27;;;;;;;35.88;16.55;;;0.40;99.90;;;;;;4978092;28;20046;-61
2022/01/16 09:27:53;;;;;;;30.13;17.23;;;0.50;99.90;;;;;;4979207;28;20038;-61
2022/01/16 09:30:20;;;;;;;38.20;15.40;;;0.50;99.90;;;;;;4975344;28;20080;-61
2022/01/16 09:32:46;;;;;;;33.70;16.35;;;0.50;99.90;;;;;;4979750;28;20554;-61
2022/01/16 09:35:13;;;;;;;31.00;16.25;;;0.50;99.90;;;;;;4977627;28;20479;-61
2022/01/16 09:37:39;;;;;;;35.47;17.20;;;0.50;99.90;;;;;;4975954;28;20031;-61
2022/01/16 09:40:07;;;;;;;32.67;15.00;;;0.60;99.90;;;;;;4977374;28;20121;-61
2022/01/16 09:42:33;;;;;;;30.77;14.40;;;0.60;99.90;;;;;;4979711;28;20034;-61
2022/01/16 09:44:59;;;;;;;32.53;13.45;;;0.60;99.90;;;;;;4977468;28;20492;-61
2022/01/16 09:47:25;;;;;;;32.05;16.40;;;0.70;99.90;;;;;;4978255;28;20080;-61
2022/01/16 09:49:51;;;;;;;30.65;14.55;;;0.70;99.90;;;;;;4974032;28;20385;-61
2022/01/16 09:52:18;;;;;;;30.88;15.60;;;0.80;99.90;;;;;;4976762;28;20037;-60
2022/01/16 09:54:44;;;;;;;28.33;13.88;;;0.80;99.90;;;;;;4976473;28;20018;-61
2022/01/16 09:57:11;;;;;;;35.67;15.52;;;0.80;99.90;;;;;;4978148;28;20066;-61
2022/01/16 09:59:36;;;;;;;30.60;15.20;;;0.80;99.90;;;;;;4980166;28;20030;-61
2022/01/16 10:02:04;;;;;;;37.22;14.50;;;0.80;99.90;;;;;;4976374;28;20419;-63
2022/01/16 10:04:38;;;;;;;34.15;15.57;;;0.90;99.90;;;;;;4979096;28;20067;-63
2022/01/16 10:07:10;;;;;;;32.00;13.65;;;0.90;99.90;;;;;;4977315;28;20022;-63
2022/01/16 10:09:39;;;;;;;31.23;13.27;;;1.00;99.90;;;;;;4977714;28;20435;-62
2022/01/16 10:12:14;;;;;;;23.05;11.18;;;1.00;99.90;;;;;;4975307;28;20038;-63
2022/01/16 10:14:50;;;;;;;27.38;12.57;;;1.00;99.90;;;;;;4978911;28;20030;-63
2022/01/16 10:17:23;;;;;;;16.60;10.45;;;1.10;99.90;;;;;;4977614;28;20036;-63
2022/01/16 10:20:00;;;;;;;25.65;11.48;;;1.10;99.90;;;;;;4976474;28;20034;-63
2022/01/16 10:22:44;;;;;;;24.48;12.13;;;1.10;99.90;;;;;;4977170;28;20088;-63
2022/01/16 10:25:11;;;;;;;21.42;11.18;;;1.20;99.90;;;;;;4974060;28;20050;-63
2022/01/16 10:27:39;;;;;;;27.23;12.45;;;1.30;99.90;;;;;;4978657;28;20526;-63
2022/01/16 10:30:07;;;;;;;25.90;12.32;;;1.20;99.90;;;;;;4978388;28;20026;-63
2022/01/16 10:32:37;;;;;;;27.25;12.00;;;1.30;99.90;;;;;;4977110;28;20569;-63
2022/01/16 10:35:22;;;;;;;23.50;10.90;;;1.30;99.90;;;;;;4976761;28;20146;-63
2022/01/16 10:37:53;;;;;;;27.02;13.05;;;1.30;99.90;;;;;;4979215;28;20049;-63
2022/01/16 10:40:22;;;;;;;25.30;12.52;;;1.40;99.90;;;;;;4980675;28;20048;-63
2022/01/16 10:42:55;;;;;;;22.13;12.25;;;1.40;99.90;;;;;;4984739;28;20739;-63
2022/01/16 10:45:27;;;;;;;25.60;11.80;;;1.50;99.90;;;;;;4988320;28;20024;-63
2022/01/16 10:47:55;;;;;;;21.60;11.52;;;1.50;99.90;;;;;;4987860;28;20037;-63
2022/01/16 10:50:33;;;;;;;26.40;12.25;;;1.50;99.90;;;;;;4985601;28;20030;-63
2022/01/16 10:53:06;;;;;;;24.83;11.23;;;1.50;99.90;;;;;;4978653;28;21095;-63
2022/01/16 10:55:33;;;;;;;26.80;13.10;;;1.60;99.90;;;;;;4982237;28;20550;-63
2022/01/16 10:58:04;;;;;;;26.15;12.43;;;1.60;99.90;;;;;;4980361;28;20110;-63
2022/01/16 11:00:30;;;;;;;18.95;10.13;;;1.60;99.90;;;;;;4979221;28;20084;-63
2022/01/16 11:03:01;;;;;;;29.45;13.68;;;1.70;99.90;;;;;;4980578;28;20049;-63
2022/01/16 11:05:28;;;;;;;21.88;10.65;;;1.70;99.90;;;;;;4983164;28;20022;-63
2022/01/16 11:08:00;;;;;;;20.35;10.38;;;1.70;99.90;;;;;;4980660;28;20038;-63
2022/01/16 11:10:27;;;;;;;21.77;11.35;;;1.80;99.90;;;;;;4979786;28;21034;-63
2022/01/16 11:13:05;;;;;;;21.25;10.40;;;1.80;99.90;;;;;;4980014;28;20502;-63
2022/01/16 11:15:32;;;;;;;22.90;11.55;;;1.80;99.90;;;;;;4982393;28;20035;-63
2022/01/16 11:17:58;;;;;;;22.85;11.48;;;1.90;99.90;;;;;;4983260;28;20124;-63
2022/01/16 11:20:45;;;;;;;25.45;14.05;;;1.90;99.90;;;;;;4980618;28;20049;-63
2022/01/16 11:23:28;;;;;;;24.10;11.27;;;1.90;99.90;;;;;;4980697;28;20081;-63
2022/01/16 11:26:03;;;;;;;26.88;12.18;;;1.90;99.90;;;;;;4977494;28;20613;-63
2022/01/16 11:28:29;;;;;;;26.60;12.20;;;2.00;99.90;;;;;;4981869;28;20834;-63
2022/01/16 11:30:58;;;;;;;22.55;12.02;;;2.00;99.90;;;;;;4980811;28;20113;-63
2022/01/16 11:33:26;;;;;;;24.20;11.60;;;2.10;99.90;;;;;;4980316;28;20058;-63
2022/01/16 11:36:06;;;;;;;19.23;12.30;;;2.10;99.90;;;;;;4983544;28;20034;-63
2022/01/16 11:38:35;;;;;;;19.98;11.00;;;2.20;99.90;;;;;;4987679;28;20066;-63
2022/01/16 11:41:11;;;;;;;24.05;11.57;;;2.20;99.90;;;;;;4983998;28;20030;-63
2022/01/16 11:43:38;;;;;;;16.42;9.93;;;2.30;99.90;;;;;;4987742;28;20021;-63
2022/01/16 11:46:12;;;;;;;23.73;12.55;;;2.30;99.90;;;;;;4988154;28;20034;-64
2022/01/16 11:48:40;;;;;;;15.30;8.82;;;2.30;99.90;;;;;;4984410;28;20026;-63
2022/01/16 11:51:35;;;;;;;23.20;12.90;;;2.40;99.90;;;;;;4984763;28;20112;-63
2022/01/16 11:54:32;;;;;;;25.30;13.07;;;2.40;99.90;;;;;;4984591;28;20030;-63
2022/01/16 11:57:15;;;;;;;16.10;8.52;;;2.40;99.90;;;;;;4970766;28;20057;-64
2022/01/16 11:59:41;;;;;;;23.10;11.45;;;2.40;99.90;;;;;;4987507;28;20475;-63
2022/01/16 12:02:09;;;;;;;25.33;11.80;;;2.50;99.90;;;;;;4984841;28;20038;-63
2022/01/16 12:04:37;;;;;;;20.00;9.27;;;2.50;99.90;;;;;;4986088;28;20038;-63
2022/01/16 12:07:12;;;;;;;20.77;10.73;;;2.50;99.90;;;;;;4985143;28;20026;-63
2022/01/16 12:10:19;;;;;;;18.33;9.57;;;2.60;99.90;;;;;;4984132;28;20548;-63
2022/01/16 12:12:31;;;;;;;;;;;2.70;99.90;;;;;;4983254;28;20046;-63
2022/01/16 12:15:18;;;;;;;8.68;5.80;;;2.80;99.90;;;;;;4982534;28;19964;-63
2022/01/16 12:17:49;;;;;;;15.77;9.15;;;2.80;99.90;;;;;;4988013;28;20483;-63
2022/01/16 12:20:18;;;;;;;20.88;10.20;;;2.90;99.90;;;;;;4983523;28;20030;-63
2022/01/16 12:22:43;;;;;;;;;;;2.90;99.90;;;;;;4986141;28;20034;-63
2022/01/16 12:25:18;;;;;;;19.98;10.07;;;2.90;99.90;;;;;;4983816;28;19917;-63
2022/01/16 12:27:55;;;;;;;16.15;8.85;;;2.90;99.90;;;;;;4982262;28;20042;-63
2022/01/16 12:30:20;;;;;;;27.33;11.25;;;3.00;99.90;;;;;;4981905;28;20049;-63
2022/01/16 12:32:57;;;;;;;15.40;9.63;;;3.00;99.90;;;;;;4982089;28;20204;-63
2022/01/16 12:35:41;;;;;;;20.92;10.00;;;3.00;99.90;;;;;;4984675;28;20041;-63
2022/01/16 12:38:08;;;;;;;18.58;10.40;;;3.00;99.90;;;;;;4979342;28;20039;-63
2022/01/16 12:40:34;;;;;;;20.30;9.67;;;3.10;99.90;;;;;;4983423;28;20026;-63
2022/01/16 12:43:01;;;;;;;16.92;9.30;;;3.10;99.90;;;;;;4983750;28;20478;-63
2022/01/16 12:45:29;;;;;;;19.23;9.15;;;3.10;99.90;;;;;;4982578;28;20046;-63
2022/01/16 12:47:56;;;;;;;19.98;10.13;;;3.20;99.90;;;;;;4985885;28;20728;-63
2022/01/16 12:50:21;;;;;;;16.20;10.15;;;3.30;99.90;;;;;;4985757;28;20030;-63
2022/01/16 12:52:48;;;;;;;21.23;9.50;;;3.30;99.90;;;;;;4984231;28;20089;-63
2022/01/16 12:55:14;;;;;;;18.70;8.48;;;3.30;99.90;;;;;;4981140;28;20038;-63
2022/01/16 12:57:40;;;;;;;18.90;9.65;;;3.20;99.90;;;;;;4980745;28;20659;-63
2022/01/16 13:00:10;;;;;;;18.48;9.00;;;3.10;99.90;;;;;;4984737;28;20053;-63
2022/01/16 13:02:40;;;;;;;21.75;10.93;;;3.10;99.90;;;;;;4982518;28;20073;-63
2022/01/16 13:05:06;;;;;;;24.55;9.90;;;3.10;99.90;;;;;;4982681;28;20034;-63
2022/01/16 13:07:33;;;;;;;18.52;9.20;;;3.20;99.90;;;;;;4983295;28;20472;-63
2022/01/16 13:10:04;;;;;;;18.27;8.18;;;3.30;99.90;;;;;;4993177;23;20077;-72
2022/01/16 13:12:30;;;;;;;15.00;8.88;;;3.20;99.90;;;;;;4969552;28;20090;-72
2022/01/16 13:15:02;;;;;;;19.83;10.45;;;3.20;99.90;;;;;;4963376;28;20034;-67
2022/01/16 13:17:30;;;;;;;18.27;9.75;;;3.30;99.90;;;;;;4981865;28;20046;-67
2022/01/16 13:19:58;;;;;;;15.95;8.73;;;3.40;99.90;;;;;;4967799;28;20524;-63
2022/01/16 13:22:26;;;;;;;;;;;3.40;99.90;;;;;;4966531;28;20039;-72
2022/01/16 13:25:07;;;;;;;18.60;8.70;;;3.30;99.90;;;;;;4965959;28;20583;-73
2022/01/16 13:27:43;;;;;;;19.75;10.20;;;3.30;99.90;;;;;;4967528;28;20356;-72